sensor_id;sensor_type;location;lat;lon;timestamp;P1;durP1;ratioP1;P2;durP2;ratioP2
76035;SDS011;64732;56.314;44.068;2024-02-28T00:00:17;2.75;;;1.10;;
76035;SDS011;64732;56.314;44.068;2024-02-28T00:02:38;4.43;;;1.98;;
76035;SDS011;64732;56.314;44.068;2024-02-28T00:05:01;4.13;;;1.25;;
76035;SDS011;64732;56.314;44.068;2024-02-28T00:07:22;3.72;;;1.30;;
76035;SDS011;64732;56.314;44.068;2024-02-28T00:09:43;4.07;;;1.23;;
76035;SDS011;64732;56.314;44.068;2024-02-28T00:12:03;2.95;;;1.10;;
76035;SDS011;64732;56.314;44.068;2024-02-28T00:14:24;5.88;;;1.10;;
76035;SDS011;64732;56.314;44.068;2024-02-28T00:16:45;6.35;;;1.35;;
76035;SDS011;64732;56.314;44.068;2024-02-28T00:19:06;2.65;;;1.25;;
76035;SDS011;64732;56.314;44.068;2024-02-28T00:21:29;7.32;;;1.70;;
76035;SDS011;64732;56.314;44.068;2024-02-28T00:23:50;2.28;;;1.20;;
76035;SDS011;64732;56.314;44.068;2024-02-28T00:26:11;3.35;;;1.63;;
76035;SDS011;64732;56.314;44.068;2024-02-28T00:28:32;8.90;;;1.85;;
76035;SDS011;64732;56.314;44.068;2024-02-28T00:30:52;5.15;;;1.63;;
76035;SDS011;64732;56.314;44.068;2024-02-28T00:33:13;5.60;;;1.30;;
76035;SDS011;64732;56.314;44.068;2024-02-28T00:35:34;2.70;;;0.93;;
76035;SDS011;64732;56.314;44.068;2024-02-28T00:37:57;2.40;;;1.10;;
76035;SDS011;64732;56.314;44.068;2024-02-28T00:40:18;4.63;;;1.30;;
76035;SDS011;64732;56.314;44.068;2024-02-28T00:42:39;3.65;;;0.98;;
76035;SDS011;64732;56.314;44.068;2024-02-28T00:44:59;2.45;;;0.95;;
76035;SDS011;64732;56.314;44.068;2024-02-28T00:47:20;4.55;;;1.38;;
76035;SDS011;64732;56.314;44.068;2024-02-28T00:49:40;4.30;;;1.73;;
76035;SDS011;64732;56.314;44.068;2024-02-28T00:52:01;2.65;;;1.30;;
76035;SDS011;64732;56.314;44.068;2024-02-28T00:54:24;3.35;;;1.20;;
76035;SDS011;64732;56.314;44.068;2024-02-28T00:56:45;2.88;;;1.00;;
76035;SDS011;64732;56.314;44.068;2024-02-28T00:59:05;3.13;;;1.08;;
76035;SDS011;64732;56.314;44.068;2024-02-28T01:01:27;3.72;;;2.20;;
76035;SDS011;64732;56.314;44.068;2024-02-28T01:03:48;2.53;;;1.40;;
76035;SDS011;64732;56.314;44.068;2024-02-28T01:06:08;4.13;;;1.02;;
76035;SDS011;64732;56.314;44.068;2024-02-28T01:08:29;2.38;;;0.70;;
76035;SDS011;64732;56.314;44.068;2024-02-28T01:10:52;5.75;;;1.05;;
76035;SDS011;64732;56.314;44.068;2024-02-28T01:13:13;3.95;;;1.45;;
76035;SDS011;64732;56.314;44.068;2024-02-28T01:15:34;3.80;;;1.20;;
76035;SDS011;64732;56.314;44.068;2024-02-28T01:17:54;5.05;;;1.30;;
76035;SDS011;64732;56.314;44.068;2024-02-28T01:20:15;2.42;;;1.13;;
76035;SDS011;64732;56.314;44.068;2024-02-28T01:22:35;5.28;;;1.10;;
76035;SDS011;64732;56.314;44.068;2024-02-28T01:24:56;4.28;;;1.58;;
76035;SDS011;64732;56.314;44.068;2024-02-28T01:27:19;3.03;;;1.30;;
76035;SDS011;64732;56.314;44.068;2024-02-28T01:29:40;1.40;;;0.77;;
76035;SDS011;64732;56.314;44.068;2024-02-28T01:32:01;4.88;;;1.70;;
76035;SDS011;64732;56.314;44.068;2024-02-28T01:34:21;3.63;;;1.30;;
76035;SDS011;64732;56.314;44.068;2024-02-28T01:36:42;5.35;;;1.75;;
76035;SDS011;64732;56.314;44.068;2024-02-28T01:39:03;2.47;;;1.02;;
76035;SDS011;64732;56.314;44.068;2024-02-28T01:41:23;6.47;;;1.25;;
76035;SDS011;64732;56.314;44.068;2024-02-28T01:43:46;3.67;;;1.35;;
76035;SDS011;64732;56.314;44.068;2024-02-28T01:46:10;3.40;;;1.02;;
76035;SDS011;64732;56.314;44.068;2024-02-28T01:48:33;1.80;;;0.73;;
76035;SDS011;64732;56.314;44.068;2024-02-28T01:50:54;4.45;;;1.23;;
76035;SDS011;64732;56.314;44.068;2024-02-28T01:53:15;2.92;;;1.20;;
76035;SDS011;64732;56.314;44.068;2024-02-28T01:55:35;4.40;;;1.10;;
76035;SDS011;64732;56.314;44.068;2024-02-28T01:57:56;2.35;;;1.13;;
76035;SDS011;64732;56.314;44.068;2024-02-28T02:00:19;2.40;;;0.77;;
76035;SDS011;64732;56.314;44.068;2024-02-28T02:02:41;2.03;;;0.85;;
76035;SDS011;64732;56.314;44.068;2024-02-28T02:05:02;1.95;;;0.75;;
76035;SDS011;64732;56.314;44.068;2024-02-28T02:07:25;2.15;;;0.93;;
76035;SDS011;64732;56.314;44.068;2024-02-28T02:09:46;6.60;;;1.52;;
76035;SDS011;64732;56.314;44.068;2024-02-28T02:12:07;9.07;;;1.13;;
76035;SDS011;64732;56.314;44.068;2024-02-28T02:14:28;1.90;;;0.90;;
76035;SDS011;64732;56.314;44.068;2024-02-28T02:16:51;1.70;;;0.95;;
76035;SDS011;64732;56.314;44.068;2024-02-28T02:19:12;2.00;;;1.13;;
76035;SDS011;64732;56.314;44.068;2024-02-28T02:21:34;3.42;;;1.20;;
76035;SDS011;64732;56.314;44.068;2024-02-28T02:23:57;2.88;;;0.95;;
76035;SDS011;64732;56.314;44.068;2024-02-28T02:26:18;1.38;;;0.82;;
76035;SDS011;64732;56.314;44.068;2024-02-28T02:28:39;2.92;;;0.85;;
76035;SDS011;64732;56.314;44.068;2024-02-28T02:30:59;2.40;;;1.08;;
76035;SDS011;64732;56.314;44.068;2024-02-28T02:33:20;4.32;;;1.50;;
76035;SDS011;64732;56.314;44.068;2024-02-28T02:35:41;4.30;;;1.65;;
76035;SDS011;64732;56.314;44.068;2024-02-28T02:38:04;1.85;;;0.82;;
76035;SDS011;64732;56.314;44.068;2024-02-28T02:40:27;2.70;;;0.80;;
76035;SDS011;64732;56.314;44.068;2024-02-28T02:42:48;2.45;;;1.20;;
76035;SDS011;64732;56.314;44.068;2024-02-28T02:45:09;3.28;;;1.02;;
76035;SDS011;64732;56.314;44.068;2024-02-28T02:47:29;3.28;;;1.45;;
76035;SDS011;64732;56.314;44.068;2024-02-28T02:49:50;5.97;;;1.15;;
76035;SDS011;64732;56.314;44.068;2024-02-28T02:52:11;2.38;;;1.10;;
76035;SDS011;64732;56.314;44.068;2024-02-28T02:54:31;1.48;;;0.65;;
76035;SDS011;64732;56.314;44.068;2024-02-28T02:56:54;2.03;;;0.85;;
76035;SDS011;64732;56.314;44.068;2024-02-28T02:59:15;4.57;;;0.93;;
76035;SDS011;64732;56.314;44.068;2024-02-28T03:01:36;1.27;;;0.73;;
76035;SDS011;64732;56.314;44.068;2024-02-28T03:03:56;2.67;;;0.82;;
76035;SDS011;64732;56.314;44.068;2024-02-28T03:06:17;3.78;;;0.82;;
76035;SDS011;64732;56.314;44.068;2024-02-28T03:08:38;2.00;;;0.90;;
76035;SDS011;64732;56.314;44.068;2024-02-28T03:10:58;2.08;;;0.82;;
76035;SDS011;64732;56.314;44.068;2024-02-28T03:13:22;2.60;;;1.15;;
76035;SDS011;64732;56.314;44.068;2024-02-28T03:15:42;5.05;;;1.23;;
76035;SDS011;64732;56.314;44.068;2024-02-28T03:18:03;3.17;;;1.27;;
76035;SDS011;64732;56.314;44.068;2024-02-28T03:20:24;2.78;;;0.70;;
76035;SDS011;64732;56.314;44.068;2024-02-28T03:22:45;3.85;;;0.80;;
76035;SDS011;64732;56.314;44.068;2024-02-28T03:25:06;1.33;;;0.70;;
76035;SDS011;64732;56.314;44.068;2024-02-28T03:27:26;1.98;;;0.98;;
76035;SDS011;64732;56.314;44.068;2024-02-28T03:29:50;1.05;;;0.63;;
76035;SDS011;64732;56.314;44.068;2024-02-28T03:32:10;2.20;;;0.70;;
76035;SDS011;64732;56.314;44.068;2024-02-28T03:34:31;3.35;;;1.40;;
76035;SDS011;64732;56.314;44.068;2024-02-28T03:36:52;1.48;;;0.88;;
76035;SDS011;64732;56.314;44.068;2024-02-28T03:39:12;1.13;;;0.77;;
76035;SDS011;64732;56.314;44.068;2024-02-28T03:41:33;2.03;;;1.00;;
76035;SDS011;64732;56.314;44.068;2024-02-28T03:43:53;2.40;;;0.85;;
76035;SDS011;64732;56.314;44.068;2024-02-28T03:46:17;1.20;;;0.68;;
76035;SDS011;64732;56.314;44.068;2024-02-28T03:48:37;1.67;;;0.57;;
76035;SDS011;64732;56.314;44.068;2024-02-28T03:50:58;2.65;;;0.90;;
76035;SDS011;64732;56.314;44.068;2024-02-28T03:53:19;2.75;;;1.00;;
76035;SDS011;64732;56.314;44.068;2024-02-28T03:55:39;1.90;;;0.95;;
76035;SDS011;64732;56.314;44.068;2024-02-28T03:58:00;2.08;;;0.85;;
76035;SDS011;64732;56.314;44.068;2024-02-28T04:00:21;4.10;;;0.82;;
76035;SDS011;64732;56.314;44.068;2024-02-28T04:02:44;1.75;;;1.20;;
76035;SDS011;64732;56.314;44.068;2024-02-28T04:05:05;2.03;;;0.90;;
76035;SDS011;64732;56.314;44.068;2024-02-28T04:10:13;2.65;;;1.23;;
76035;SDS011;64732;56.314;44.068;2024-02-28T04:12:34;5.00;;;0.93;;
76035;SDS011;64732;56.314;44.068;2024-02-28T04:14:55;2.35;;;0.98;;
76035;SDS011;64732;56.314;44.068;2024-02-28T04:17:15;2.38;;;0.80;;
76035;SDS011;64732;56.314;44.068;2024-02-28T04:19:38;2.38;;;1.48;;
76035;SDS011;64732;56.314;44.068;2024-02-28T04:21:59;2.30;;;1.00;;
76035;SDS011;64732;56.314;44.068;2024-02-28T04:24:20;1.75;;;0.80;;
76035;SDS011;64732;56.314;44.068;2024-02-28T04:26:41;3.28;;;1.17;;
76035;SDS011;64732;56.314;44.068;2024-02-28T04:29:01;2.92;;;1.45;;
76035;SDS011;64732;56.314;44.068;2024-02-28T04:31:22;7.85;;;1.30;;
76035;SDS011;64732;56.314;44.068;2024-02-28T04:33:43;3.33;;;1.25;;
76035;SDS011;64732;56.314;44.068;2024-02-28T04:36:06;5.78;;;1.60;;
76035;SDS011;64732;56.314;44.068;2024-02-28T04:38:27;2.70;;;0.95;;
76035;SDS011;64732;56.314;44.068;2024-02-28T04:40:47;2.92;;;1.33;;
76035;SDS011;64732;56.314;44.068;2024-02-28T04:43:08;2.22;;;0.90;;
76035;SDS011;64732;56.314;44.068;2024-02-28T04:45:29;2.92;;;0.95;;
76035;SDS011;64732;56.314;44.068;2024-02-28T04:47:49;2.15;;;1.13;;
76035;SDS011;64732;56.314;44.068;2024-02-28T04:50:10;2.00;;;0.90;;
76035;SDS011;64732;56.314;44.068;2024-02-28T04:52:34;1.88;;;1.10;;
76035;SDS011;64732;56.314;44.068;2024-02-28T04:54:54;4.20;;;1.48;;
76035;SDS011;64732;56.314;44.068;2024-02-28T04:57:15;3.67;;;1.55;;
76035;SDS011;64732;56.314;44.068;2024-02-28T04:59:35;3.35;;;1.17;;
76035;SDS011;64732;56.314;44.068;2024-02-28T05:01:56;4.05;;;1.00;;
76035;SDS011;64732;56.314;44.068;2024-02-28T05:04:17;1.58;;;0.65;;
76035;SDS011;64732;56.314;44.068;2024-02-28T05:06:37;1.75;;;0.93;;
76035;SDS011;64732;56.314;44.068;2024-02-28T05:09:01;3.00;;;1.17;;
76035;SDS011;64732;56.314;44.068;2024-02-28T05:11:22;2.58;;;0.90;;
76035;SDS011;64732;56.314;44.068;2024-02-28T05:13:43;1.50;;;0.85;;
76035;SDS011;64732;56.314;44.068;2024-02-28T05:16:04;4.75;;;1.42;;
76035;SDS011;64732;56.314;44.068;2024-02-28T05:18:24;2.95;;;1.17;;
76035;SDS011;64732;56.314;44.068;2024-02-28T05:20:45;2.10;;;0.93;;
76035;SDS011;64732;56.314;44.068;2024-02-28T05:23:06;2.85;;;1.33;;
76035;SDS011;64732;56.314;44.068;2024-02-28T05:25:29;2.45;;;1.20;;
76035;SDS011;64732;56.314;44.068;2024-02-28T05:27:50;2.55;;;1.45;;
76035;SDS011;64732;56.314;44.068;2024-02-28T05:30:14;4.40;;;1.27;;
76035;SDS011;64732;56.314;44.068;2024-02-28T05:32:35;2.58;;;1.33;;
76035;SDS011;64732;56.314;44.068;2024-02-28T05:34:55;2.15;;;1.10;;
76035;SDS011;64732;56.314;44.068;2024-02-28T05:37:16;2.55;;;1.40;;
76035;SDS011;64732;56.314;44.068;2024-02-28T05:39:37;2.35;;;1.08;;
76035;SDS011;64732;56.314;44.068;2024-02-28T05:42:00;4.05;;;1.20;;
76035;SDS011;64732;56.314;44.068;2024-02-28T05:44:21;2.63;;;1.13;;
76035;SDS011;64732;56.314;44.068;2024-02-28T05:46:41;6.07;;;1.13;;
76035;SDS011;64732;56.314;44.068;2024-02-28T05:49:02;2.35;;;1.25;;
76035;SDS011;64732;56.314;44.068;2024-02-28T05:51:23;3.50;;;1.50;;
76035;SDS011;64732;56.314;44.068;2024-02-28T05:53:44;5.80;;;1.35;;
76035;SDS011;64732;56.314;44.068;2024-02-28T05:56:05;12.18;;;1.58;;
76035;SDS011;64732;56.314;44.068;2024-02-28T05:58:28;2.95;;;1.35;;
76035;SDS011;64732;56.314;44.068;2024-02-28T06:00:49;2.22;;;1.08;;
76035;SDS011;64732;56.314;44.068;2024-02-28T06:03:10;3.15;;;1.35;;
76035;SDS011;64732;56.314;44.068;2024-02-28T06:05:31;1.98;;;1.00;;
76035;SDS011;64732;56.314;44.068;2024-02-28T06:07:51;5.35;;;2.15;;
76035;SDS011;64732;56.314;44.068;2024-02-28T06:10:12;4.72;;;1.55;;
76035;SDS011;64732;56.314;44.068;2024-02-28T06:12:33;4.10;;;1.95;;
76035;SDS011;64732;56.314;44.068;2024-02-28T06:14:56;3.08;;;1.50;;
76035;SDS011;64732;56.314;44.068;2024-02-28T06:17:17;5.03;;;2.13;;
76035;SDS011;64732;56.314;44.068;2024-02-28T06:19:37;3.20;;;1.52;;
76035;SDS011;64732;56.314;44.068;2024-02-28T06:21:58;2.95;;;1.45;;
76035;SDS011;64732;56.314;44.068;2024-02-28T06:24:18;3.38;;;1.70;;
76035;SDS011;64732;56.314;44.068;2024-02-28T06:26:39;4.55;;;2.00;;
76035;SDS011;64732;56.314;44.068;2024-02-28T06:29:00;5.20;;;2.20;;
76035;SDS011;64732;56.314;44.068;2024-02-28T06:31:23;2.63;;;1.02;;
76035;SDS011;64732;56.314;44.068;2024-02-28T06:33:44;6.90;;;3.00;;
76035;SDS011;64732;56.314;44.068;2024-02-28T06:36:05;5.13;;;1.55;;
76035;SDS011;64732;56.314;44.068;2024-02-28T06:38:25;3.72;;;1.58;;
76035;SDS011;64732;56.314;44.068;2024-02-28T06:40:46;4.13;;;1.80;;
76035;SDS011;64732;56.314;44.068;2024-02-28T06:43:07;3.20;;;1.42;;
76035;SDS011;64732;56.314;44.068;2024-02-28T06:45:27;2.97;;;1.52;;
76035;SDS011;64732;56.314;44.068;2024-02-28T06:47:50;6.18;;;1.83;;
76035;SDS011;64732;56.314;44.068;2024-02-28T06:50:11;6.32;;;2.00;;
76035;SDS011;64732;56.314;44.068;2024-02-28T06:52:32;5.75;;;2.50;;
76035;SDS011;64732;56.314;44.068;2024-02-28T06:54:52;6.20;;;2.10;;
76035;SDS011;64732;56.314;44.068;2024-02-28T06:57:13;5.32;;;2.17;;
76035;SDS011;64732;56.314;44.068;2024-02-28T06:59:34;8.80;;;2.60;;
76035;SDS011;64732;56.314;44.068;2024-02-28T07:01:54;6.38;;;1.85;;
76035;SDS011;64732;56.314;44.068;2024-02-28T07:04:17;3.17;;;1.60;;
76035;SDS011;64732;56.314;44.068;2024-02-28T07:06:38;4.68;;;1.70;;
76035;SDS011;64732;56.314;44.068;2024-02-28T07:08:59;4.72;;;1.60;;
76035;SDS011;64732;56.314;44.068;2024-02-28T07:11:19;7.55;;;2.15;;
76035;SDS011;64732;56.314;44.068;2024-02-28T07:13:40;4.97;;;1.85;;
76035;SDS011;64732;56.314;44.068;2024-02-28T07:16:01;3.97;;;1.52;;
76035;SDS011;64732;56.314;44.068;2024-02-28T07:18:21;4.38;;;1.58;;
76035;SDS011;64732;56.314;44.068;2024-02-28T07:20:45;8.38;;;1.70;;
76035;SDS011;64732;56.314;44.068;2024-02-28T07:23:05;7.72;;;2.85;;
76035;SDS011;64732;56.314;44.068;2024-02-28T07:25:26;5.43;;;1.52;;
76035;SDS011;64732;56.314;44.068;2024-02-28T07:27:46;5.28;;;1.63;;
76035;SDS011;64732;56.314;44.068;2024-02-28T07:30:07;3.30;;;1.50;;
76035;SDS011;64732;56.314;44.068;2024-02-28T07:32:28;10.85;;;1.83;;
76035;SDS011;64732;56.314;44.068;2024-02-28T07:34:51;4.43;;;1.00;;
76035;SDS011;64732;56.314;44.068;2024-02-28T07:37:14;3.25;;;1.48;;
76035;SDS011;64732;56.314;44.068;2024-02-28T07:39:35;3.53;;;1.60;;
76035;SDS011;64732;56.314;44.068;2024-02-28T07:41:55;1.67;;;1.00;;
76035;SDS011;64732;56.314;44.068;2024-02-28T07:44:16;7.10;;;1.73;;
76035;SDS011;64732;56.314;44.068;2024-02-28T07:46:37;4.07;;;1.33;;
76035;SDS011;64732;56.314;44.068;2024-02-28T07:48:57;3.13;;;1.55;;
76035;SDS011;64732;56.314;44.068;2024-02-28T07:51:18;4.80;;;1.73;;
76035;SDS011;64732;56.314;44.068;2024-02-28T07:53:41;5.63;;;1.20;;
76035;SDS011;64732;56.314;44.068;2024-02-28T07:56:02;4.35;;;1.50;;
76035;SDS011;64732;56.314;44.068;2024-02-28T07:58:23;5.25;;;1.77;;
76035;SDS011;64732;56.314;44.068;2024-02-28T08:00:46;11.13;;;1.58;;
76035;SDS011;64732;56.314;44.068;2024-02-28T08:03:07;3.50;;;1.55;;
76035;SDS011;64732;56.314;44.068;2024-02-28T08:05:27;4.78;;;1.73;;
76035;SDS011;64732;56.314;44.068;2024-02-28T08:07:48;5.07;;;1.63;;
76035;SDS011;64732;56.314;44.068;2024-02-28T08:10:11;5.93;;;1.95;;
76035;SDS011;64732;56.314;44.068;2024-02-28T08:12:32;6.10;;;1.73;;
76035;SDS011;64732;56.314;44.068;2024-02-28T08:14:53;6.30;;;1.70;;
76035;SDS011;64732;56.314;44.068;2024-02-28T08:17:13;5.30;;;1.80;;
76035;SDS011;64732;56.314;44.068;2024-02-28T08:19:34;4.38;;;1.60;;
76035;SDS011;64732;56.314;44.068;2024-02-28T08:21:55;4.88;;;2.10;;
76035;SDS011;64732;56.314;44.068;2024-02-28T08:24:15;5.50;;;1.90;;
76035;SDS011;64732;56.314;44.068;2024-02-28T08:26:38;7.43;;;2.20;;
76035;SDS011;64732;56.314;44.068;2024-02-28T08:28:59;6.82;;;1.95;;
76035;SDS011;64732;56.314;44.068;2024-02-28T08:31:20;3.70;;;1.42;;
76035;SDS011;64732;56.314;44.068;2024-02-28T08:33:40;5.40;;;2.00;;
76035;SDS011;64732;56.314;44.068;2024-02-28T08:36:01;6.40;;;1.92;;
76035;SDS011;64732;56.314;44.068;2024-02-28T08:38:22;4.05;;;1.45;;
76035;SDS011;64732;56.314;44.068;2024-02-28T08:40:42;5.30;;;1.50;;
76035;SDS011;64732;56.314;44.068;2024-02-28T08:43:06;5.43;;;1.90;;
76035;SDS011;64732;56.314;44.068;2024-02-28T08:45:26;8.15;;;2.00;;
76035;SDS011;64732;56.314;44.068;2024-02-28T08:47:47;4.28;;;1.80;;
76035;SDS011;64732;56.314;44.068;2024-02-28T08:50:08;2.63;;;1.30;;
76035;SDS011;64732;56.314;44.068;2024-02-28T08:52:28;5.35;;;2.00;;
76035;SDS011;64732;56.314;44.068;2024-02-28T08:54:49;6.85;;;1.70;;
76035;SDS011;64732;56.314;44.068;2024-02-28T08:57:11;5.68;;;1.95;;
76035;SDS011;64732;56.314;44.068;2024-02-28T08:59:34;6.25;;;1.80;;
76035;SDS011;64732;56.314;44.068;2024-02-28T09:01:55;4.68;;;1.85;;
76035;SDS011;64732;56.314;44.068;2024-02-28T09:04:15;11.80;;;2.00;;
76035;SDS011;64732;56.314;44.068;2024-02-28T09:06:36;17.83;;;3.15;;
76035;SDS011;64732;56.314;44.068;2024-02-28T09:08:57;6.45;;;2.15;;
76035;SDS011;64732;56.314;44.068;2024-02-28T09:11:17;7.68;;;1.98;;
76035;SDS011;64732;56.314;44.068;2024-02-28T09:16:18;4.15;;;1.85;;
76035;SDS011;64732;56.314;44.068;2024-02-28T09:18:39;8.68;;;2.30;;
76035;SDS011;64732;56.314;44.068;2024-02-28T09:20:59;4.75;;;1.90;;
76035;SDS011;64732;56.314;44.068;2024-02-28T09:23:20;8.48;;;1.70;;
76035;SDS011;64732;56.314;44.068;2024-02-28T09:25:41;7.32;;;1.77;;
76035;SDS011;64732;56.314;44.068;2024-02-28T09:28:01;6.60;;;1.50;;
76035;SDS011;64732;56.314;44.068;2024-02-28T09:30:31;5.72;;;2.35;;
76035;SDS011;64732;56.314;44.068;2024-02-28T09:33:03;5.65;;;1.60;;
76035;SDS011;64732;56.314;44.068;2024-02-28T09:35:24;6.68;;;2.05;;
76035;SDS011;64732;56.314;44.068;2024-02-28T09:37:45;5.85;;;1.77;;
76035;SDS011;64732;56.314;44.068;2024-02-28T09:40:08;5.13;;;1.75;;
76035;SDS011;64732;56.314;44.068;2024-02-28T09:42:29;5.78;;;2.25;;
76035;SDS011;64732;56.314;44.068;2024-02-28T09:44:50;4.88;;;2.25;;
76035;SDS011;64732;56.314;44.068;2024-02-28T09:47:10;8.45;;;2.10;;
76035;SDS011;64732;56.314;44.068;2024-02-28T09:49:34;5.15;;;2.05;;
76035;SDS011;64732;56.314;44.068;2024-02-28T09:51:54;4.28;;;1.73;;
76035;SDS011;64732;56.314;44.068;2024-02-28T09:54:17;9.43;;;1.73;;
76035;SDS011;64732;56.314;44.068;2024-02-28T09:56:38;4.05;;;1.48;;
76035;SDS011;64732;56.314;44.068;2024-02-28T09:58:59;3.85;;;1.77;;
76035;SDS011;64732;56.314;44.068;2024-02-28T10:01:20;8.93;;;2.08;;
76035;SDS011;64732;56.314;44.068;2024-02-28T10:03:41;9.50;;;1.90;;
76035;SDS011;64732;56.314;44.068;2024-02-28T10:06:08;3.63;;;1.95;;
76035;SDS011;64732;56.314;44.068;2024-02-28T10:08:28;5.72;;;2.60;;
76035;SDS011;64732;56.314;44.068;2024-02-28T10:10:49;9.75;;;3.63;;
76035;SDS011;64732;56.314;44.068;2024-02-28T10:13:10;4.47;;;2.35;;
76035;SDS011;64732;56.314;44.068;2024-02-28T10:15:30;7.75;;;2.70;;
76035;SDS011;64732;56.314;44.068;2024-02-28T10:17:51;5.32;;;2.13;;
76035;SDS011;64732;56.314;44.068;2024-02-28T10:20:12;4.25;;;1.73;;
76035;SDS011;64732;56.314;44.068;2024-02-28T10:22:38;10.05;;;2.53;;
76035;SDS011;64732;56.314;44.068;2024-02-28T10:24:59;4.82;;;1.98;;
76035;SDS011;64732;56.314;44.068;2024-02-28T10:27:20;5.03;;;2.08;;
76035;SDS011;64732;56.314;44.068;2024-02-28T10:29:41;8.25;;;2.30;;
76035;SDS011;64732;56.314;44.068;2024-02-28T10:32:02;4.35;;;2.17;;
76035;SDS011;64732;56.314;44.068;2024-02-28T10:34:24;4.65;;;2.17;;
76035;SDS011;64732;56.314;44.068;2024-02-28T10:36:44;5.90;;;2.50;;
76035;SDS011;64732;56.314;44.068;2024-02-28T10:39:08;5.45;;;2.40;;
76035;SDS011;64732;56.314;44.068;2024-02-28T10:41:28;4.47;;;2.00;;
76035;SDS011;64732;56.314;44.068;2024-02-28T10:43:49;3.97;;;2.10;;
76035;SDS011;64732;56.314;44.068;2024-02-28T10:46:10;4.57;;;2.05;;
76035;SDS011;64732;56.314;44.068;2024-02-28T10:48:31;7.32;;;2.33;;
76035;SDS011;64732;56.314;44.068;2024-02-28T10:50:51;6.75;;;2.00;;
76035;SDS011;64732;56.314;44.068;2024-02-28T10:53:13;3.88;;;1.80;;
76035;SDS011;64732;56.314;44.068;2024-02-28T10:55:40;6.25;;;2.13;;
76035;SDS011;64732;56.314;44.068;2024-02-28T10:58:02;4.30;;;2.00;;
76035;SDS011;64732;56.314;44.068;2024-02-28T11:00:23;5.30;;;1.88;;
76035;SDS011;64732;56.314;44.068;2024-02-28T11:02:43;3.40;;;1.80;;
76035;SDS011;64732;56.314;44.068;2024-02-28T11:05:04;4.20;;;2.28;;
76035;SDS011;64732;56.314;44.068;2024-02-28T11:07:25;5.82;;;2.20;;
76035;SDS011;64732;56.314;44.068;2024-02-28T11:09:45;5.10;;;2.35;;
76035;SDS011;64732;56.314;44.068;2024-02-28T11:12:12;4.78;;;2.15;;
76035;SDS011;64732;56.314;44.068;2024-02-28T11:14:44;6.57;;;2.20;;
76035;SDS011;64732;56.314;44.068;2024-02-28T11:17:05;7.15;;;2.10;;
76035;SDS011;64732;56.314;44.068;2024-02-28T11:19:27;7.03;;;2.80;;
76035;SDS011;64732;56.314;44.068;2024-02-28T11:21:51;6.10;;;2.55;;
76035;SDS011;64732;56.314;44.068;2024-02-28T11:24:12;5.57;;;2.42;;
76035;SDS011;64732;56.314;44.068;2024-02-28T11:26:33;6.43;;;2.33;;
76035;SDS011;64732;56.314;44.068;2024-02-28T11:28:57;8.50;;;2.35;;
76035;SDS011;64732;56.314;44.068;2024-02-28T11:31:18;4.97;;;2.10;;
76035;SDS011;64732;56.314;44.068;2024-02-28T11:33:38;4.28;;;1.60;;
76035;SDS011;64732;56.314;44.068;2024-02-28T11:36:01;6.78;;;2.42;;
76035;SDS011;64732;56.314;44.068;2024-02-28T11:38:21;6.13;;;2.20;;
76035;SDS011;64732;56.314;44.068;2024-02-28T11:40:48;5.50;;;1.80;;
76035;SDS011;64732;56.314;44.068;2024-02-28T11:43:08;8.98;;;2.72;;
76035;SDS011;64732;56.314;44.068;2024-02-28T11:45:32;5.93;;;2.53;;
76035;SDS011;64732;56.314;44.068;2024-02-28T11:48:00;7.00;;;3.37;;
76035;SDS011;64732;56.314;44.068;2024-02-28T11:50:21;6.10;;;2.22;;
76035;SDS011;64732;56.314;44.068;2024-02-28T11:52:42;6.80;;;2.58;;
76035;SDS011;64732;56.314;44.068;2024-02-28T11:55:02;5.35;;;2.28;;
76035;SDS011;64732;56.314;44.068;2024-02-28T11:57:25;9.75;;;3.20;;
76035;SDS011;64732;56.314;44.068;2024-02-28T11:59:46;10.00;;;2.95;;
76035;SDS011;64732;56.314;44.068;2024-02-28T12:02:14;5.05;;;2.38;;
76035;SDS011;64732;56.314;44.068;2024-02-28T12:04:35;8.60;;;3.03;;
76035;SDS011;64732;56.314;44.068;2024-02-28T12:06:56;5.63;;;2.30;;
76035;SDS011;64732;56.314;44.068;2024-02-28T12:09:17;5.40;;;1.77;;
76035;SDS011;64732;56.314;44.068;2024-02-28T12:11:47;7.15;;;2.30;;
76035;SDS011;64732;56.314;44.068;2024-02-28T12:14:20;8.50;;;2.60;;
76035;SDS011;64732;56.314;44.068;2024-02-28T12:16:41;6.25;;;2.40;;
76035;SDS011;64732;56.314;44.068;2024-02-28T12:19:06;6.22;;;2.40;;
76035;SDS011;64732;56.314;44.068;2024-02-28T12:21:27;5.00;;;2.58;;
76035;SDS011;64732;56.314;44.068;2024-02-28T12:23:49;5.10;;;2.45;;
76035;SDS011;64732;56.314;44.068;2024-02-28T12:26:12;7.68;;;2.65;;
76035;SDS011;64732;56.314;44.068;2024-02-28T12:28:32;6.38;;;2.35;;
76035;SDS011;64732;56.314;44.068;2024-02-28T12:30:53;8.48;;;3.45;;
76035;SDS011;64732;56.314;44.068;2024-02-28T12:33:14;7.13;;;2.80;;
76035;SDS011;64732;56.314;44.068;2024-02-28T12:35:37;9.63;;;2.38;;
76035;SDS011;64732;56.314;44.068;2024-02-28T12:37:58;7.63;;;2.65;;
76035;SDS011;64732;56.314;44.068;2024-02-28T12:40:18;7.07;;;2.78;;
76035;SDS011;64732;56.314;44.068;2024-02-28T12:42:39;4.65;;;2.35;;
76035;SDS011;64732;56.314;44.068;2024-02-28T12:44:59;8.40;;;2.88;;
76035;SDS011;64732;56.314;44.068;2024-02-28T12:47:20;8.93;;;2.83;;
76035;SDS011;64732;56.314;44.068;2024-02-28T12:49:41;5.57;;;2.70;;
76035;SDS011;64732;56.314;44.068;2024-02-28T12:52:05;9.00;;;3.00;;
76035;SDS011;64732;56.314;44.068;2024-02-28T12:54:25;9.75;;;4.07;;
76035;SDS011;64732;56.314;44.068;2024-02-28T12:56:46;6.82;;;3.05;;
76035;SDS011;64732;56.314;44.068;2024-02-28T12:59:07;9.93;;;3.05;;
76035;SDS011;64732;56.314;44.068;2024-02-28T13:01:27;8.25;;;2.58;;
76035;SDS011;64732;56.314;44.068;2024-02-28T13:03:48;7.55;;;2.78;;
76035;SDS011;64732;56.314;44.068;2024-02-28T13:06:09;9.38;;;2.85;;
76035;SDS011;64732;56.314;44.068;2024-02-28T13:08:32;8.65;;;3.40;;
76035;SDS011;64732;56.314;44.068;2024-02-28T13:10:53;8.18;;;3.10;;
76035;SDS011;64732;56.314;44.068;2024-02-28T13:13:14;7.35;;;2.85;;
76035;SDS011;64732;56.314;44.068;2024-02-28T13:15:35;6.93;;;2.78;;
76035;SDS011;64732;56.314;44.068;2024-02-28T13:17:56;6.50;;;2.22;;
76035;SDS011;64732;56.314;44.068;2024-02-28T13:20:16;4.88;;;2.03;;
76035;SDS011;64732;56.314;44.068;2024-02-28T13:22:37;9.50;;;3.25;;
76035;SDS011;64732;56.314;44.068;2024-02-28T13:27:36;5.18;;;2.55;;
76035;SDS011;64732;56.314;44.068;2024-02-28T13:29:57;13.32;;;3.85;;
76035;SDS011;64732;56.314;44.068;2024-02-28T13:32:17;7.95;;;3.40;;
76035;SDS011;64732;56.314;44.068;2024-02-28T13:34:38;7.90;;;2.70;;
76035;SDS011;64732;56.314;44.068;2024-02-28T13:36:59;7.50;;;2.20;;
76035;SDS011;64732;56.314;44.068;2024-02-28T13:39:20;8.48;;;2.60;;
76035;SDS011;64732;56.314;44.068;2024-02-28T13:41:41;4.60;;;2.05;;
76035;SDS011;64732;56.314;44.068;2024-02-28T13:44:04;4.68;;;2.10;;
76035;SDS011;64732;56.314;44.068;2024-02-28T13:46:24;7.45;;;2.22;;
76035;SDS011;64732;56.314;44.068;2024-02-28T13:48:45;9.13;;;2.05;;
76035;SDS011;64732;56.314;44.068;2024-02-28T13:51:06;5.20;;;1.90;;
76035;SDS011;64732;56.314;44.068;2024-02-28T13:53:27;8.00;;;2.65;;
76035;SDS011;64732;56.314;44.068;2024-02-28T13:55:47;7.70;;;2.28;;
76035;SDS011;64732;56.314;44.068;2024-02-28T13:58:08;8.20;;;2.15;;
76035;SDS011;64732;56.314;44.068;2024-02-28T14:00:31;8.38;;;2.45;;
76035;SDS011;64732;56.314;44.068;2024-02-28T14:02:52;5.78;;;1.80;;
76035;SDS011;64732;56.314;44.068;2024-02-28T14:05:12;6.60;;;2.67;;